Time;durP1;ratioP1;P1;durP2;ratioP2;P2;SDS_P1;SDS_P2;PMS_P1;PMS_P2;Temp;Humidity;BMP_temperature;BMP_pressure;BME280_temperature;BME280_humidity;BME280_pressure;Samples;Min_cycle;Max_cycle;Signal;HPM_P1;HPM_P2
2022/12/11 00:00:47;;;;;;;;;;;;;;;4.74;60.61;101129.22;5030601;28;109498;-67
2022/12/11 00:03:15;;;;;;;;;;;;;;;4.71;60.59;101124.06;5030399;28;108579;-67
2022/12/11 00:05:43;;;;;;;;;;;;;;;4.72;60.41;101124.91;5028037;28;124144;-67
2022/12/11 00:08:11;;;;;;;;;;;;;;;4.71;60.71;101123.16;5031559;28;124656;-67
2022/12/11 00:10:38;;;;;;;;;;;;;;;4.72;60.48;101120.53;5028122;28;109919;-67
2022/12/11 00:13:05;;;;;;;;;;;;;;;4.72;60.34;101115.28;5031495;28;109926;-67
2022/12/11 00:15:32;;;;;;;;;;;;;;;4.72;60.57;101122.28;5029286;28;123278;-67
2022/12/11 00:17:59;;;;;;;;;;;;;;;4.74;60.83;101112.63;5030720;28;124053;-67
2022/12/11 00:20:26;;;;;;;;;;;;;;;4.75;60.71;101114.38;5031115;28;109379;-66
2022/12/11 00:22:53;;;;;;;;;;;;;;;4.76;60.74;101116.94;5032436;28;108856;-67
2022/12/11 00:25:20;;;;;;;;;;;;;;;4.77;60.70;101108.19;5026516;28;124078;-67
2022/12/11 00:27:47;;;;;;;;;;;;;;;4.80;60.49;101113.41;5027995;28;124215;-67
2022/12/11 00:30:14;;;;;;;;;;;;;;;4.82;60.80;101111.63;5032430;28;110505;-67
2022/12/11 00:32:41;;;;;;;;;;;;;;;4.85;60.40;101116.81;5027982;28;109222;-66
2022/12/11 00:35:09;;;;;;;;;;;;;;;4.86;60.39;101121.16;5029801;28;124165;-67
2022/12/11 00:37:36;;;;;;;;;;;;;;;4.86;60.66;101129.03;5029522;28;124155;-67
2022/12/11 00:40:03;;;;;;;;;;;;;;;4.86;60.42;101129.03;5032072;28;109638;-67
2022/12/11 00:42:30;;;;;;;;;;;;;;;4.83;60.38;101123.84;5029061;28;108956;-67
2022/12/11 00:44:57;;;;;;;;;;;;;;;4.82;60.58;101121.22;5029577;28;123200;-67
2022/12/11 00:47:24;;;;;;;;;;;;;;;4.81;60.58;101116.88;5029874;28;123650;-67
2022/12/11 00:49:51;;;;;;;;;;;;;;;4.81;60.52;101115.13;5029932;27;108366;-67
2022/12/11 00:52:17;;;;;;;;;;;;;;;4.80;60.67;101118.66;5030795;28;108693;-67
2022/12/11 00:54:44;;;;;;;;;;;;;;;4.82;60.75;101122.13;5031940;28;125242;-67
2022/12/11 00:57:11;;;;;;;;;;;;;;;4.84;60.68;101116.81;5028381;28;123282;-67
2022/12/11 00:59:38;;;;;;;;;;;;;;;4.84;60.49;101109.84;5029826;28;110888;-67
2022/12/11 01:02:05;;;;;;;;;;;;;;;4.86;60.75;101117.69;5029234;28;109822;-67
2022/12/11 01:04:34;;;;;;;;;;;;;;;4.86;60.50;101113.28;5029839;28;124780;-67
2022/12/11 01:07:01;;;;;;;;;;;;;;;4.88;60.75;101114.13;5024012;28;124218;-67
2022/12/11 01:12:14;;;;;;;;;;;;;;;4.90;60.35;101102.72;5030984;28;109371;-67
2022/12/11 01:14:40;;;;;;;;;;;;;;;4.90;60.45;101107.97;5029036;28;124689;-67
2022/12/11 01:17:07;;;;;;;;;;;;;;;4.88;60.56;101101.00;5031912;27;123487;-67
2022/12/11 01:19:34;;;;;;;;;;;;;;;4.87;60.64;101093.16;5033700;28;110210;-67
2022/12/11 01:22:01;;;;;;;;;;;;;;;4.87;60.43;101094.00;5033129;28;108896;-67
2022/12/11 01:24:28;;;;;;;;;;;;;;;4.87;60.62;101101.88;5033819;28;124330;-67
2022/12/11 01:26:55;;;;;;;;;;;;;;;4.87;60.42;101104.50;5031945;28;124567;-67
2022/12/11 01:29:22;;;;;;;;;;;;;;;4.88;60.51;101101.00;5028951;28;110025;-67
2022/12/11 01:31:48;;;;;;;;;;;;;;;4.91;60.71;101104.47;5033807;28;109073;-67
2022/12/11 01:34:15;;;;;;;;;;;;;;;4.90;60.43;101107.97;5032920;28;124168;-67
2022/12/11 01:36:42;;;;;;;;;;;;;;;4.88;60.42;101106.25;5031526;27;122698;-67
2022/12/11 01:39:09;;;;;;;;;;;;;;;4.88;60.38;101106.25;5033958;28;109628;-67
2022/12/11 01:41:36;;;;;;;;;;;;;;;4.87;60.82;101115.00;5034815;28;108878;-67
2022/12/11 01:44:05;;;;;;;;;;;;;;;4.88;60.72;101106.25;5034033;28;125414;-67
2022/12/11 01:46:33;;;;;;;;;;;;;;;4.87;60.67;101099.25;5033795;27;125081;-67
2022/12/11 01:49:01;;;;;;;;;;;;;;;4.89;60.78;101107.13;5034104;27;111771;-67
2022/12/11 01:51:29;;;;;;;;;;;;;;;4.88;60.40;101106.25;5029108;28;109821;-67
2022/12/11 01:53:59;;;;;;;;;;;;;;;4.88;60.74;101106.25;5027626;28;123205;-66
2022/12/11 01:56:29;;;;;;;;;;;;;;;4.90;60.80;101097.47;5030880;28;124213;-67
2022/12/11 01:59:01;;;;;;;;;;;;;;;4.88;60.70;101095.75;5031351;28;109113;-66
2022/12/11 02:01:35;;;;;;;;;;;;;;;4.91;60.54;101099.22;5030394;28;108574;-66
2022/12/11 02:04:03;;;;;;;;;;;;;;;4.92;60.81;101093.09;5030303;27;124091;-67
2022/12/11 02:06:34;;;;;;;;;;;;;;;4.92;60.65;101091.31;5030943;28;124640;-67
2022/12/11 02:09:02;;;;;;;;;;;;;;;4.92;60.47;101090.47;5029659;28;108823;-67
2022/12/11 02:11:50;;;;;;;;;;;;;;;4.93;60.85;101092.19;5035012;28;109478;-67
2022/12/11 02:14:19;;;;;;;;;;;;;;;4.94;60.83;101088.69;5032633;28;126232;-67
2022/12/11 02:16:54;;;;;;;;;;;;;;;4.96;60.80;101086.91;5031800;28;123015;-67
2022/12/11 02:19:40;;;;;;;;;;;;;;;4.96;60.55;101084.28;5031307;28;109360;-67
2022/12/11 02:22:10;;;;;;;;;;;;;;;4.96;60.67;101084.28;5030935;28;108927;-67
2022/12/11 02:24:39;;;;;;;;;;;;;;;4.96;60.45;101089.53;5033011;28;124800;-67
2022/12/11 02:27:25;;;;;;;;;;;;;;;4.96;60.80;101079.03;5032256;27;123873;-67
2022/12/11 02:29:57;;;;;;;;;;;;;;;4.95;60.77;101075.50;5024314;28;115056;-67
2022/12/11 02:32:24;;;;;;;;;;;;;;;4.97;60.59;101075.47;5025653;28;113584;-66
2022/12/11 02:35:04;;;;;;;;;;;;;;;4.98;60.61;101074.59;5031070;28;124757;-67
2022/12/11 02:37:31;;;;;;;;;;;;;;;5.00;60.51;101078.06;5028515;28;124145;-67
2022/12/11 02:39:58;;;;;;;;;;;;;;;5.00;60.62;101075.44;5030658;28;114653;-67
2022/12/11 02:42:29;;;;;;;;;;;;;;;5.00;60.63;101073.69;5029083;28;114535;-67
2022/12/11 02:44:58;;;;;;;;;;;;;;;5.01;60.84;101080.66;5028306;28;123531;-67
2022/12/11 02:47:26;;;;;;;;;;;;;;;5.02;60.85;101076.28;5029348;28;124287;-65
2022/12/11 02:49:54;;;;;;;;;;;;;;;5.03;60.75;101072.78;5026467;28;114066;-67
2022/12/11 02:52:23;;;;;;;;;;;;;;;5.02;60.53;101071.03;5029378;27;112820;-67
2022/12/11 02:54:52;;;;;;;;;;;;;;;5.02;60.57;101071.88;5040816;27;125702;-67
2022/12/11 02:57:37;;;;;;;;;;;;;;;5.04;60.64;101069.22;5028640;28;123680;-67
2022/12/11 03:00:05;;;;;;;;;;;;;;;5.05;60.57;101063.09;5027556;28;114580;-67
2022/12/11 03:02:32;;;;;;;;;;;;;;;5.07;60.80;101058.69;5029503;28;114179;-66
2022/12/11 03:04:59;;;;;;;;;;;;;;;5.09;60.74;101061.28;5026986;28;124817;-67
2022/12/11 03:07:32;;;;;;;;;;;;;;;5.09;60.87;101049.03;5029500;27;123623;-67
2022/12/11 03:09:59;;;;;;;;;;;;;;;5.10;60.66;101053.34;5029486;28;114390;-67
2022/12/11 03:12:28;;;;;;;;;;;;;;;5.10;60.57;101052.50;5037765;27;113672;-66
2022/12/11 03:14:56;;;;;;;;;;;;;;;5.09;60.49;101051.66;5038202;27;123425;-65
2022/12/11 03:17:26;;;;;;;;;;;;;;;5.10;60.49;101053.34;5031031;27;124039;-67
2022/12/11 03:20:04;;;;;;;;;;;;;;;5.10;60.65;101048.09;5039279;27;114032;-67
2022/12/11 03:22:30;;;;;;;;;;;;;;;5.10;60.48;101053.34;5026719;27;113918;-67
2022/12/11 03:24:58;;;;;;;;;;;;;;;5.11;60.84;101049.84;5014811;27;123084;-67
2022/12/11 03:27:43;;;;;;;;;;;;;;;5.10;60.60;101048.09;5028421;28;123021;-66
2022/12/11 03:30:13;;;;;;;;;;;;;;;5.10;60.54;101042.84;5022729;28;114978;-68
2022/12/11 03:32:43;;;;;;;;;;;;;;;5.11;60.60;101036.72;5031445;28;115094;-68
2022/12/11 03:35:13;;;;;;;;;;;;;;;5.14;60.72;101034.06;5026616;27;124389;-68
2022/12/11 03:37:41;;;;;;;;;;;;;;;5.15;60.68;101030.50;5029977;28;125565;-67
2022/12/11 03:40:11;;;;;;;;;;;;;;;5.16;60.55;101036.63;5028196;27;114231;-68
2022/12/11 03:42:39;;;;;;;;;;;;;;;5.17;60.57;101031.34;5030140;27;113754;-68
2022/12/11 03:45:07;;;;;;;;;;;;;;;5.19;60.81;101037.44;5027816;28;124147;-68
2022/12/11 03:47:36;;;;;;;;;;;;;;;5.20;60.81;101028.69;5028719;27;123001;-68
2022/12/11 03:50:04;;;;;;;;;;;;;;;5.20;60.57;101040.94;5028712;28;114594;-68
2022/12/11 03:52:31;;;;;;;;;;;;;;;5.19;60.89;101034.81;5025998;28;113152;-67
2022/12/11 03:55:00;;;;;;;;;;;;;;;5.20;60.56;101043.56;5025629;28;123631;-67
2022/12/11 03:57:31;;;;;;;;;;;;;;;5.20;60.63;101047.06;5027900;27;124207;-67
2022/12/11 03:59:58;;;;;;;;;;;;;;;5.22;60.83;101050.50;5028348;27;114766;-67
2022/12/11 04:02:25;;;;;;;;;;;;;;;5.22;60.50;101040.00;5025807;27;112483;-66
2022/12/11 04:04:52;;;;;;;;;;;;;;;5.23;60.72;101044.34;5027881;28;124187;-68
2022/12/11 04:07:19;;;;;;;;;;;;;;;5.24;60.51;101042.59;5027058;28;123925;-67
2022/12/11 04:09:46;;;;;;;;;;;;;;;5.24;60.87;101030.34;5026416;28;116391;-67
2022/12/11 04:12:13;;;;;;;;;;;;;;;5.26;60.60;101031.16;5026922;28;113811;-67
2022/12/11 04:25:43;;;;;;;;;;;;;;;5.27;60.48;101029.41;5028041;28;124335;-67
2022/12/11 04:28:10;;;;;;;;;;;;;;;5.28;60.92;101027.66;5029160;28;127147;-67
2022/12/11 04:30:37;;;;;;;;;;;;;;;5.31;60.80;101030.22;5027697;28;114622;-67
2022/12/11 04:33:04;;;;;;;;;;;;;;;5.33;60.84;101028.41;5030157;28;113628;-67
2022/12/11 04:35:31;;;;;;;;;;;;;;;5.34;60.84;101027.53;5026721;28;123130;-67
2022/12/11 04:37:58;;;;;;;;;;;;;;;5.34;60.86;101027.53;5028846;28;123963;-68
2022/12/11 04:40:25;;;;;;;;;;;;;;;5.36;60.54;101028.34;5027108;28;114244;-66
2022/12/11 04:42:52;;;;;;;;;;;;;;;5.36;60.51;101028.34;5029338;28;113746;-67
2022/12/11 04:45:18;;;;;;;;;;;;;;;5.37;60.51;101024.81;5026789;28;124420;-68
2022/12/11 04:47:45;;;;;;;;;;;;;;;5.38;60.83;101031.81;5026191;28;124476;-67
2022/12/11 04:50:13;;;;;;;;;;;;;;;5.39;60.52;101034.41;5026266;28;114694;-67
2022/12/11 04:52:40;;;;;;;;;;;;;;;5.40;60.85;101030.03;5028608;28;113817;-67
2022/12/11 04:55:08;;;;;;;;;;;;;;;5.42;60.85;101036.09;5027508;28;124269;-67
2022/12/11 04:57:35;;;;;;;;;;;;;;;5.42;60.53;101028.22;5026443;28;123229;-67
2022/12/11 05:00:03;;;;;;;;;;;;;;;5.41;60.42;101031.75;5024035;28;114337;-67
2022/12/11 05:02:33;;;;;;;;;;;;;;;5.42;60.46;101028.22;5027369;28;113674;-67
2022/12/11 05:05:00;;;;;;;;;;;;;;;5.43;60.44;101019.47;5024747;28;124041;-66
2022/12/11 05:07:26;;;;;;;;;;;;;;;5.43;60.67;101019.47;5028024;28;123996;-67
2022/12/11 05:09:53;;;;;;;;;;;;;;;5.44;60.49;101021.19;5028255;28;116165;-66
2022/12/11 05:12:20;;;;;;;;;;;;;;;5.43;60.80;101019.47;5028745;28;114396;-68
2022/12/11 05:14:50;;;;;;;;;;;;;;;5.44;60.48;101031.69;5028230;28;123424;-67
2022/12/11 05:17:16;;;;;;;;;;;;;;;5.44;60.74;101037.81;5027705;28;124346;-67
2022/12/11 05:19:45;;;;;;;;;;;;;;;5.44;60.82;101026.44;5028840;28;114438;-67
2022/12/11 05:22:12;;;;;;;;;;;;;;;5.45;60.54;101022.91;5027481;28;112895;-68
2022/12/11 05:24:39;;;;;;;;;;;;;;;5.45;60.66;101022.91;5027262;28;125613;-67
2022/12/11 05:27:06;;;;;;;;;;;;;;;5.45;60.67;101022.91;5027938;28;124159;-67
2022/12/11 05:29:33;;;;;;;;;;;;;;;5.46;60.61;101024.63;5026214;28;114423;-67
2022/12/11 05:32:00;;;;;;;;;;;;;;;5.45;60.82;101020.28;5027665;28;113850;-67
2022/12/11 05:34:26;;;;;;;;;;;;;;;5.46;60.56;101019.38;5027822;27;124170;-67
2022/12/11 05:36:53;;;;;;;;;;;;;;;5.46;60.41;101014.13;5024806;28;124703;-67
2022/12/11 05:39:20;;;;;;;;;;;;;;;5.45;60.41;101002.75;5028392;28;114355;-66
2022/12/11 05:41:47;;;;;;;;;;;;;;;5.46;60.87;100998.38;5025482;28;114258;-66
2022/12/11 05:44:14;;;;;;;;;;;;;;;5.47;60.80;101000.09;5025270;28;126069;-67
2022/12/11 05:46:41;;;;;;;;;;;;;;;5.47;60.55;101005.38;5026004;28;124366;-67
2022/12/11 05:49:09;;;;;;;;;;;;;;;5.47;60.82;101000.09;5026981;28;114602;-68
2022/12/11 05:51:38;;;;;;;;;;;;;;;5.45;60.92;100996.66;5026600;28;113742;-67
2022/12/11 05:54:05;;;;;;;;;;;;;;;5.44;60.76;100990.53;5026904;27;123581;-67
2022/12/11 05:56:33;;;;;;;;;;;;;;;5.45;60.82;100992.25;5027037;28;126599;-67
2022/12/11 05:59:00;;;;;;;;;;;;;;;5.45;60.48;100997.50;5026692;27;114963;-67
2022/12/11 06:01:29;;;;;;;;;;;;;;;5.46;60.87;100993.13;5023686;28;114959;-67
2022/12/11 06:03:56;;;;;;;;;;;;;;;5.46;60.72;100993.13;5025715;28;123582;-67
2022/12/11 06:06:23;;;;;;;;;;;;;;;5.45;60.45;100996.66;5028993;28;124663;-67
2022/12/11 06:08:51;;;;;;;;;;;;;;;5.46;60.88;101003.63;5030163;28;114567;-67
2022/12/11 06:11:19;;;;;;;;;;;;;;;5.46;60.72;101003.63;5030096;27;112975;-67
2022/12/11 06:13:50;;;;;;;;;;;;;;;5.46;60.44;100999.25;5029363;28;124606;-67
2022/12/11 06:16:18;;;;;;;;;;;;;;;5.47;60.67;101005.38;5029293;28;123974;-68
2022/12/11 06:18:45;;;;;;;;;;;;;;;5.47;60.78;101005.38;5028103;27;113824;-67
2022/12/11 06:21:15;;;;;;;;;;;;;;;5.47;60.61;101005.38;5031087;28;114750;-67
2022/12/11 06:23:43;;;;;;;;;;;;;;;5.48;60.36;101001.81;5028783;27;123835;-66
2022/12/11 06:26:10;;;;;;;;;;;;;;;5.47;60.68;101015.88;5029010;28;124123;-67
2022/12/11 06:28:37;;;;;;;;;;;;;;;5.47;60.72;101005.38;5029710;28;114360;-67
2022/12/11 06:31:04;;;;;;;;;;;;;;;5.46;60.58;101003.63;5028836;28;114486;-67
2022/12/11 06:33:31;;;;;;;;;;;;;;;5.46;60.80;101008.88;5028705;28;124371;-67
2022/12/11 06:36:02;;;;;;;;;;;;;;;5.45;60.78;101007.16;5028324;28;123938;-67
2022/12/11 06:38:29;;;;;;;;;;;;;;;5.45;60.48;101012.41;5028892;28;113423;-67
2022/12/11 06:40:56;;;;;;;;;;;;;;;5.42;60.64;101002.81;5030523;28;113837;-67
2022/12/11 06:43:24;;;;;;;;;;;;;;;5.41;60.74;101005.50;5028262;28;124882;-67
2022/12/11 06:45:51;;;;;;;;;;;;;;;5.39;60.35;101007.31;5027793;28;125060;-67
2022/12/11 06:48:19;;;;;;;;;;;;;;;5.36;60.73;101008.22;5029859;28;115010;-66
2022/12/11 06:50:46;;;;;;;;;;;;;;;5.33;60.41;101003.03;5030567;28;114717;-67
2022/12/11 06:53:13;;;;;;;;;;;;;;;5.33;60.55;101012.66;5027909;28;124538;-68
2022/12/11 06:55:40;;;;;;;;;;;;;;;5.32;60.50;101013.56;5029981;28;124872;-66
2022/12/11 06:58:08;;;;;;;;;;;;;;;5.32;60.67;101016.19;5029126;27;114767;-67
2022/12/11 07:00:35;;;;;;;;;;;;;;;5.34;60.96;101017.03;5029264;28;114396;-68
2022/12/11 07:03:03;;;;;;;;;;;;;;;5.36;60.90;101020.47;5028625;27;124545;-67
2022/12/11 07:05:31;;;;;;;;;;;;;;;5.36;60.66;101023.09;5029128;28;124108;-67
2022/12/11 07:07:58;;;;;;;;;;;;;;;5.34;60.38;101019.66;5029633;28;116174;-67
2022/12/11 07:10:25;;;;;;;;;;;;;;;5.32;60.78;101021.44;5030060;28;113732;-67
2022/12/11 07:12:53;;;;;;;;;;;;;;;5.32;60.56;101024.06;5029761;28;124992;-67
2022/12/11 07:15:20;;;;;;;;;;;;;;;5.33;60.67;101023.16;5028798;27;123998;-67
2022/12/11 07:17:46;;;;;;;;;;;;;;;5.32;60.41;101026.69;5027549;28;115359;-67
2022/12/11 07:20:13;;;;;;;;;;;;;;;5.31;60.31;101019.69;5030328;28;115749;-67
2022/12/11 07:22:40;;;;;;;;;;;;;;;5.29;60.63;101021.50;5028721;27;124309;-67
2022/12/11 07:25:13;;;;;;;;;;;;;;;5.29;60.48;101026.75;5024176;28;123766;-67
2022/12/11 07:27:40;;;;;;;;;;;;;;;5.29;60.75;101032.00;5029483;28;114136;-67
2022/12/11 07:30:08;;;;;;;;;;;;;;;5.26;60.54;101032.94;5028322;28;113162;-67
2022/12/11 07:32:35;;;;;;;;;;;;;;;5.26;60.78;101033.78;5029621;28;124708;-67
2022/12/11 07:35:02;;;;;;;;;;;;;;;5.28;60.85;101032.91;5028843;28;124365;-66
2022/12/11 07:37:29;;;;;;;;;;;;;;;5.29;60.86;101037.25;5028279;28;115514;-66
2022/12/11 07:39:56;;;;;;;;;;;;;;;5.30;60.75;101039.00;5027570;28;113999;-67
2022/12/11 07:42:23;;;;;;;;;;;;;;;5.32;60.85;101037.19;5009735;28;123771;-67
2022/12/11 07:44:50;;;;;;;;;;;;;;;5.30;60.52;101044.25;5023241;28;123984;-67
2022/12/11 07:47:17;;;;;;;;;;;;;;;5.29;60.78;101042.50;5024424;28;112780;-67
2022/12/11 07:49:44;;;;;;;;;;;;;;;5.31;60.68;101040.72;5025653;27;113915;-67
2022/12/11 07:52:10;;;;;;;;;;;;;;;5.31;60.89;101045.97;5026960;27;123770;-67
2022/12/11 07:54:37;;;;;;;;;;;;;;;5.34;60.83;101045.91;5024863;28;123643;-67
2022/12/11 07:57:05;;;;;;;;;;;;;;;5.37;60.84;101045.84;5026457;28;114565;-66
2022/12/11 07:59:40;;;;;;;;;;;;;;;5.37;60.55;101040.56;5024050;28;113664;-66
2022/12/11 08:02:09;;;;;;;;;;;;;;;5.39;60.54;101044.06;5024712;28;124100;-66
2022/12/11 08:04:36;;;;;;;;;;;;;;;5.41;60.82;101039.66;5024101;28;124087;-65
2022/12/11 08:07:03;;;;;;;;;;;;;;;5.42;60.71;101046.59;5026021;28;115235;-66
2022/12/11 08:09:30;;;;;;;;;;;;;;;5.41;60.32;101040.50;5028129;27;112167;-66
2022/12/11 08:11:57;;;;;;;;;;;;;;;5.41;60.45;101044.91;5027787;28;124401;-66
2022/12/11 08:14:23;;;;;;;;;;;;;;;5.39;60.36;101047.56;5028551;28;124864;-66
2022/12/11 08:16:50;;;;;;;;;;;;;;;5.39;60.64;101046.69;5026752;28;114125;-65
2022/12/11 08:19:17;;;;;;;;;;;;;;;5.37;60.37;101037.94;5026776;28;114464;-66
2022/12/11 08:21:44;;;;;;;;;;;;;;;5.37;60.51;101041.47;5029469;28;124213;-66
2022/12/11 08:24:15;;;;;;;;;;;;;;;5.38;60.41;101031.81;5028284;27;123926;-65
2022/12/11 08:26:43;;;;;;;;;;;;;;;5.40;60.37;101035.28;5042291;27;115358;-66
2022/12/11 08:29:10;;;;;;;;;;;;;;;5.38;60.74;101037.06;5046405;28;114555;-66
2022/12/11 08:31:37;;;;;;;;;;;;;;;5.39;60.35;101038.81;5028831;28;125104;-66
2022/12/11 08:34:04;;;;;;;;;;;;;;;5.39;60.46;101028.31;5027469;27;122959;-66
2022/12/11 08:36:31;;;;;;;;;;;;;;;5.40;60.77;101032.66;5027134;27;113370;-66
2022/12/11 08:38:58;;;;;;;;;;;;;;;5.42;60.46;101033.47;5029903;28;113884;-67
2022/12/11 08:41:27;;;;;;;;;;;;;;;5.42;60.37;101039.59;5027481;28;122075;-66
2022/12/11 08:43:54;;;;;;;;;;;;;;;5.42;60.44;101036.97;5029849;28;124925;-66
2022/12/11 08:46:22;;;;;;;;;;;;;;;5.43;60.32;101040.47;5027416;28;114719;-65
2022/12/11 08:48:53;;;;;;;;;;;;;;;5.43;60.64;101035.22;5027207;28;96926;-66
2022/12/11 08:51:21;;;;;;;;;;;;;;;5.42;60.37;101034.34;5022250;28;124510;-66
2022/12/11 08:53:48;;;;;;;;;;;;;;;5.43;60.34;101040.47;5033911;27;123757;-66
2022/12/11 08:56:16;;;;;;;;;;;;;;;5.42;60.35;101033.47;5027413;27;111450;-67
2022/12/11 08:58:45;;;;;;;;;;;;;;;5.42;60.42;101029.09;5026441;27;114699;-66
2022/12/11 09:01:13;;;;;;;;;;;;;;;5.42;60.35;101033.47;5027830;28;124369;-66
2022/12/11 09:03:40;;;;;;;;;;;;;;;5.42;60.38;101033.47;5026805;27;123400;-66
2022/12/11 09:06:09;;;;;;;;;;;;;;;5.42;60.56;101029.09;5026658;28;114388;-66
2022/12/11 09:08:36;;;;;;;;;;;;;;;5.44;60.73;101031.69;5021678;28;113828;-66
2022/12/11 09:11:11;;;;;;;;;;;;;;;5.44;60.33;101031.69;5025915;28;124071;-67
2022/12/11 09:13:39;;;;;;;;;;;;;;;5.44;60.41;101021.19;5027276;28;123928;-66
2022/12/11 09:16:08;;;;;;;;;;;;;;;5.43;60.52;101024.72;5028622;28;115677;-66
2022/12/11 09:18:36;;;;;;;;;;;;;;;5.44;60.45;101021.19;5028009;28;115185;-66
2022/12/11 09:21:04;;;;;;;;;;;;;;;5.45;60.48;101017.66;5013430;28;124012;-66
2022/12/11 09:23:31;;;;;;;;;;;;;;;5.45;60.39;101015.03;5027335;28;123939;-67
2022/12/11 09:25:58;;;;;;;;;;;;;;;5.45;60.72;101004.53;5009219;28;115378;-66
2022/12/11 09:28:25;;;;;;;;;;;;;;;5.46;60.48;101008.88;5019167;28;114182;-66
2022/12/11 09:30:52;;;;;;;;;;;;;;;5.46;60.61;101001.00;5024868;27;122983;-66
2022/12/11 09:33:19;;;;;;;;;;;;;;;5.48;60.78;101007.06;5026127;27;124170;-66
2022/12/11 09:35:55;;;;;;;;;;;;;;;5.48;60.38;101007.06;5025374;28;114367;-67
2022/12/11 09:38:22;;;;;;;;;;;;;;;5.49;60.30;101008.81;5028379;28;114682;-67
2022/12/11 09:40:49;;;;;;;;;;;;;;;5.48;60.34;101007.06;5030101;28;124919;-65
2022/12/11 09:43:15;;;;;;;;;;;;;;;5.47;60.56;101010.63;5028592;28;123492;-66
2022/12/11 09:45:42;;;;;;;;;;;;;;;5.47;60.60;101011.47;5045674;27;116525;-66
2022/12/11 09:48:10;;;;;;;;;;;;;;;5.47;60.73;101010.63;5027504;27;113818;-66
2022/12/11 09:50:38;;;;;;;;;;;;;;;5.48;60.62;101012.31;5031238;28;124609;-66
2022/12/11 09:53:20;;;;;;;;;;;;;;;5.51;60.44;101017.53;5026088;28;124835;-66
2022/12/11 09:56:23;;;;;;;;;;;;;;;5.53;60.57;101009.63;5026152;28;113439;-66
2022/12/11 09:59:05;;;;;;;;;;;;;;;5.52;60.60;101019.28;4994470;28;113534;-66
2022/12/11 10:01:39;;;;;;;;;;;;;;;5.53;60.33;101010.47;5021919;27;123852;-66
2022/12/11 10:04:17;;;;;;;;;;;;;;;5.51;60.63;101007.03;5030397;28;124122;-66
2022/12/11 10:06:47;;;;;;;;;;;;;;;5.51;60.60;101012.28;5026355;28;115280;-66
2022/12/11 10:09:23;;;;;;;;;;;;;;;5.51;60.38;101007.03;5031702;28;116191;-66
2022/12/11 10:12:08;;;;;;;;;;;;;;;5.51;60.58;101012.28;5026633;28;124737;-66
2022/12/11 10:14:45;;;;;;;;;;;;;;;5.51;60.57;101007.03;5029449;28;123959;-66
2022/12/11 10:17:20;;;;;;;;;;;;;;;5.52;60.52;101008.75;5029905;28;114742;-67
2022/12/11 10:19:47;;;;;;;;;;;;;;;5.52;60.48;101003.50;5016574;28;113848;-65
2022/12/11 10:22:26;;;;;;;;;;;;;;;5.53;60.32;101005.22;5016778;28;123892;-66
2022/12/11 10:24:58;;;;;;;;;;;;;;;5.54;60.65;101006.97;5023126;28;123702;-66
2022/12/11 10:27:40;;;;;;;;;;;;;;;5.55;60.65;101008.69;5029436;28;114180;-67
2022/12/11 10:30:16;;;;;;;;;;;;;;;5.56;60.38;101005.16;5031823;28;113686;-67
2022/12/11 10:32:52;;;;;;;;;;;;;;;5.58;60.46;101011.25;5042802;27;123613;-66
2022/12/11 10:35:32;;;;;;;;;;;;;;;5.59;60.41;101002.44;5028536;28;123988;-66
2022/12/11 10:38:10;;;;;;;;;;;;;;;5.61;60.40;100998.06;5026426;27;115760;-67
2022/12/11 10:40:41;;;;;;;;;;;;;;;5.61;60.32;101003.31;5031927;28;114242;-67
2022/12/11 10:43:09;;;;;;;;;;;;;;;5.62;60.46;101004.16;5019342;28;124655;-66
2022/12/11 10:45:36;;;;;;;;;;;;;;;5.61;60.54;100992.81;5026654;28;124131;-66
2022/12/11 10:48:09;;;;;;;;;;;;;;;5.63;60.61;101000.63;5027551;28;115329;-66
2022/12/11 10:50:36;;;;;;;;;;;;;;;5.64;60.46;100997.97;5023578;28;111861;-66
2022/12/11 10:53:04;;;;;;;;;;;;;;;5.65;60.27;100999.72;5025758;28;124190;-66
2022/12/11 10:55:42;;;;;;;;;;;;;;;5.66;60.21;100990.06;5032089;27;124015;-67
2022/12/11 10:58:18;;;;;;;;;;;;;;;5.64;60.22;100987.47;5027633;28;115735;-67
2022/12/11 11:00:48;;;;;;;;;;;;;;;5.63;60.53;100975.25;5030080;28;115878;-68
2022/12/11 11:03:20;;;;;;;;;;;;;;;5.62;60.57;100978.75;5023943;28;124221;-68
2022/12/11 11:05:49;;;;;;;;;;;;;;;5.63;60.31;100985.75;5024714;28;123914;-67
2022/12/11 11:08:18;;;;;;;;;;;;;;;5.64;60.31;100982.22;5026368;28;114580;-67
2022/12/11 11:10:58;;;;;;;;;;;;;;;5.65;60.56;100976.06;5026350;28;113804;-68
2022/12/11 11:13:28;;;;;;;;;;;;;;;5.64;60.64;100971.69;5021561;28;124385;-67
2022/12/11 11:16:03;;;;;;;;;;;;;;;5.67;60.69;100976.03;5017061;28;123740;-68
2022/12/11 11:18:30;;;;;;;;;;;;;;;5.68;60.36;100979.53;5017260;28;114250;-68
2022/12/11 11:20:58;;;;;;;;;;;;;;;5.70;60.75;100980.34;5030454;28;113674;-67
2022/12/11 11:23:25;;;;;;;;;;;;;;;5.70;60.48;100969.84;5030362;28;124163;-67
2022/12/11 11:26:00;;;;;;;;;;;;;;;5.71;60.73;100971.53;5029554;28;124186;-67
2022/12/11 11:28:36;;;;;;;;;;;;;;;5.73;60.64;100969.78;5029589;27;113539;-67
2022/12/11 11:31:13;;;;;;;;;;;;;;;5.74;60.70;100966.22;5025160;28;113699;-68
2022/12/11 11:33:55;;;;;;;;;;;;;;;5.76;60.52;100969.69;5012106;28;125166;-67
2022/12/11 11:36:23;;;;;;;;;;;;;;;5.76;60.52;100964.44;5029633;28;125113;-67
2022/12/11 11:39:12;;;;;;;;;;;;;;;5.76;60.40;100964.44;5017188;28;114972;-67
2022/12/11 11:41:43;;;;;;;;;;;;;;;5.78;60.23;100957.38;5010833;28;113905;-67
2022/12/11 11:44:12;;;;;;;;;;;;;;;5.77;60.30;100955.66;5029361;27;123789;-68
2022/12/11 11:46:42;;;;;;;;;;;;;;;5.77;60.16;100953.03;5015936;28;124938;-68
2022/12/11 11:49:09;;;;;;;;;;;;;;;5.75;60.20;100952.22;5027088;28;117133;-68
2022/12/11 11:51:38;;;;;;;;;;;;;;;5.74;60.48;100955.72;5025090;28;114629;-67
2022/12/11 11:54:18;;;;;;;;;;;;;;;5.74;60.20;100950.47;5018022;28;124255;-67
2022/12/11 11:56:48;;;;;;;;;;;;;;;5.72;60.20;100941.75;5022808;28;124203;-68
2022/12/11 11:59:35;;;;;;;;;;;;;;;5.73;60.16;100933.84;5024996;28;115363;-67
2022/12/11 12:02:09;;;;;;;;;;;;;;;5.74;60.20;100939.97;5016736;28;112938;-67
2022/12/11 12:04:36;;;;;;;;;;;;;;;5.76;60.34;100938.16;5024876;28;124324;-67
2022/12/11 12:07:18;;;;;;;;;;;;;;;5.78;60.26;100941.59;5026788;28;124493;-67
2022/12/11 12:10:04;;;;;;;;;;;;;;;5.81;60.43;100946.81;5025483;27;114576;-67
2022/12/11 12:12:41;;;;;;;;;;;;;;;5.81;60.19;100933.66;5022579;28;113600;-67
2022/12/11 12:15:08;;;;;;;;;;;;;;;5.80;60.21;100937.19;5020125;28;124599;-67
2022/12/11 12:17:46;;;;;;;;;;;;;;;5.81;60.43;100937.16;5026270;28;123911;-66
2022/12/11 12:20:30;;;;;;;;;;;;;;;5.80;60.39;100934.53;5025399;28;114501;-67
2022/12/11 12:23:00;;;;;;;;;;;;;;;5.79;60.32;100935.47;5011648;27;113267;-68
2022/12/11 12:25:45;;;;;;;;;;;;;;;5.79;60.60;100938.09;5028975;28;125230;-68
2022/12/11 12:28:12;;;;;;;;;;;;;;;5.80;60.42;100942.44;5021535;28;124077;-68
2022/12/11 12:30:55;;;;;;;;;;;;;;;5.80;60.57;100939.81;5014242;27;113601;-67
2022/12/11 12:33:30;;;;;;;;;;;;;;;5.81;60.45;100936.28;5027226;28;114363;-67
2022/12/11 12:36:16;;;;;;;;;;;;;;;5.80;60.18;100939.81;5025727;28;122912;-67
2022/12/11 12:39:04;;;;;;;;;;;;;;;5.76;60.27;100928.50;5027523;28;124521;-67
2022/12/11 12:41:37;;;;;;;;;;;;;;;5.75;60.29;100920.69;5026389;27;117568;-67
2022/12/11 12:44:10;;;;;;;;;;;;;;;5.74;60.43;100930.31;5027267;28;114318;-67
2022/12/11 12:46:49;;;;;;;;;;;;;;;5.77;60.39;100924.13;5023210;28;124340;-67
2022/12/11 12:49:22;;;;;;;;;;;;;;;5.76;60.25;100928.50;5023171;28;124143;-67
2022/12/11 12:51:50;;;;;;;;;;;;;;;5.78;60.24;100925.84;5026853;28;114979;-67
2022/12/11 12:54:18;;;;;;;;;;;;;;;5.81;60.51;100931.03;5025838;28;113667;-67
2022/12/11 12:56:46;;;;;;;;;;;;;;;5.84;60.48;100925.72;5025483;28;124153;-67
2022/12/11 12:59:21;;;;;;;;;;;;;;;5.88;60.61;100922.09;5026925;28;124866;-67
2022/12/11 13:01:51;;;;;;;;;;;;;;;5.91;60.48;100927.25;5027349;28;114829;-67